Time;durP1;ratioP1;P1;durP2;ratioP2;P2;SDS_P1;SDS_P2;PMS_P1;PMS_P2;Temp;Humidity;BMP_temperature;BMP_pressure;BME280_temperature;BME280_humidity;BME280_pressure;Samples;Min_cycle;Max_cycle;Signal;HPM_P1;HPM_P2
2020/12/19 00:01:51;;;;;;;7.50;5.82;;;;;;;7.24;86.45;101333.81;5112119;28;20062;-52
2020/12/19 00:04:36;;;;;;;11.00;6.80;;;;;;;7.22;86.58;101333.22;5111775;28;20059;-50
2020/12/19 00:07:03;;;;;;;10.02;6.10;;;;;;;7.25;86.18;101329.94;5112223;28;20046;-50
2020/12/19 00:09:30;;;;;;;10.45;6.32;;;;;;;7.25;86.41;101321.59;5111102;28;20057;-48
2020/12/19 00:11:57;;;;;;;8.35;6.20;;;;;;;7.26;86.12;101326.06;5111847;28;20050;-52
2020/12/19 00:14:25;;;;;;;10.38;6.68;;;;;;;7.29;86.15;101319.13;5111245;28;20051;-49
2020/12/19 00:16:52;;;;;;;9.90;6.38;;;;;;;7.29;86.46;101316.34;5111414;28;20035;-48
2020/12/19 00:19:19;;;;;;;10.27;6.60;;;;;;;7.32;86.34;101315.00;5111592;28;20051;-51
2020/12/19 00:21:45;;;;;;;10.27;6.63;;;;;;;7.32;85.98;101315.84;5111856;28;20126;-47
2020/12/19 00:24:12;;;;;;;9.75;6.72;;;;;;;7.34;85.95;101312.78;5111466;28;20421;-47
2020/12/19 00:26:42;;;;;;;10.32;6.38;;;;;;;7.33;86.38;101311.94;5110973;28;20035;-51
2020/12/19 00:29:11;;;;;;;10.52;6.70;;;;;;;7.36;86.30;101313.38;5111767;28;20126;-52
2020/12/19 00:31:39;;;;;;;9.45;6.10;;;;;;;7.33;86.11;101305.56;5110524;28;20051;-48
2020/12/19 00:34:07;;;;;;;10.40;6.47;;;;;;;7.34;86.35;101310.84;5111834;28;20108;-52
2020/12/19 00:36:34;;;;;;;7.97;6.07;;;;;;;7.31;86.05;101305.00;5111014;28;20055;-52
2020/12/19 00:39:01;;;;;;;10.65;6.72;;;;;;;7.30;86.29;101301.38;5111492;28;20119;-50
2020/12/19 00:41:28;;;;;;;10.70;6.78;;;;;;;7.29;86.66;101304.41;5110824;28;20460;-49
2020/12/19 00:43:56;;;;;;;8.75;6.35;;;;;;;7.30;86.30;101301.38;5111214;28;20467;-51
2020/12/19 00:46:23;;;;;;;8.73;6.05;;;;;;;7.29;86.64;101302.47;5099710;28;20037;-47
2020/12/19 00:48:49;;;;;;;8.40;6.25;;;;;;;7.28;86.28;101299.97;5091232;28;20050;-48
2020/12/19 00:51:18;;;;;;;9.52;6.72;;;;;;;7.25;86.54;101293.84;5090749;28;20054;-50
2020/12/19 00:53:45;;;;;;;10.00;6.55;;;;;;;7.24;86.89;101288.56;5090567;28;20107;-49
2020/12/19 00:56:20;;;;;;;9.70;6.82;;;;;;;7.27;86.72;101293.56;5090746;28;20048;-52
2020/12/19 00:58:47;;;;;;;11.13;7.30;;;;;;;7.24;86.62;101291.34;5090472;28;20123;-49
2020/12/19 01:01:16;;;;;;;10.85;7.07;;;;;;;7.26;86.56;101297.47;5090957;28;20127;-49
2020/12/19 01:03:43;;;;;;;11.00;7.30;;;;;;;7.22;86.83;101294.38;5090836;28;20494;-48
2020/12/19 01:06:14;;;;;;;11.27;7.30;;;;;;;7.21;87.04;101289.91;5090135;28;20051;-54
2020/12/19 01:08:41;;;;;;;11.55;7.57;;;;;;;7.22;86.64;101294.38;5090573;28;20134;-49
2020/12/19 01:11:27;;;;;;;11.52;8.05;;;;;;;7.22;86.84;101297.16;5090839;28;20125;-52
2020/12/19 01:13:54;;;;;;;11.45;7.80;;;;;;;7.18;87.11;101287.72;5090069;28;20532;-48
2020/12/19 01:16:24;;;;;;;10.32;7.90;;;;;;;7.18;86.93;101298.81;5090626;28;20044;-47
2020/12/19 01:18:53;;;;;;;11.63;8.07;;;;;;;7.15;86.83;101290.16;5090880;28;20044;-47
2020/12/19 01:21:21;;;;;;;10.82;8.13;;;;;;;7.12;87.05;101291.53;5090045;28;20083;-47
2020/12/19 01:23:49;;;;;;;11.18;7.65;;;;;;;7.11;87.46;101291.81;5090610;28;20046;-47
2020/12/19 01:26:17;;;;;;;12.43;8.88;;;;;;;7.10;86.89;101285.41;5090651;28;20099;-47
2020/12/19 01:28:45;;;;;;;11.65;8.45;;;;;;;7.08;87.37;101282.06;5105812;28;20452;-47
2020/12/19 01:31:13;;;;;;;13.00;7.82;;;;;;;7.07;87.45;101291.50;5090634;28;20071;-51
2020/12/19 01:33:41;;;;;;;11.00;7.82;;;;;;;7.04;87.58;101280.91;5089727;28;20044;-46
2020/12/19 01:36:10;;;;;;;12.45;8.63;;;;;;;7.04;87.41;101283.69;5090579;28;20048;-49
2020/12/19 01:38:37;;;;;;;13.70;8.65;;;;;;;7.03;87.56;101284.78;5090254;28;20044;-51
2020/12/19 01:41:04;;;;;;;12.02;7.97;;;;;;;7.03;87.93;101290.34;5090507;28;20059;-50
2020/12/19 01:43:47;;;;;;;12.90;8.65;;;;;;;7.04;87.44;101293.94;5094351;28;20056;-47
2020/12/19 01:46:27;;;;;;;14.10;8.73;;;;;;;7.01;87.59;101281.44;5094288;28;20048;-48
2020/12/19 01:48:56;;;;;;;13.18;8.35;;;;;;;7.01;87.90;101281.44;5093779;28;20044;-51
2020/12/19 01:51:24;;;;;;;12.27;9.02;;;;;;;7.03;87.92;101279.25;5094616;28;20093;-50
2020/12/19 01:53:52;;;;;;;14.15;9.15;;;;;;;7.03;87.93;101273.69;5093897;28;20044;-46
2020/12/19 01:56:30;;;;;;;12.30;8.85;;;;;;;7.05;87.92;101282.59;5093832;28;20048;-45
2020/12/19 01:58:57;;;;;;;14.35;8.75;;;;;;;7.04;87.72;101280.06;5093996;28;20044;-47
2020/12/19 02:01:27;;;;;;;11.75;8.52;;;;;;;7.04;87.62;101268.97;5094277;28;20082;-48
2020/12/19 02:03:55;;;;;;;12.93;9.10;;;;;;;7.04;87.86;101275.38;5093265;28;20509;-51
2020/12/19 02:06:24;;;;;;;15.05;9.50;;;;;;;7.02;87.71;101274.78;5094174;28;20081;-49
2020/12/19 02:08:52;;;;;;;12.98;9.27;;;;;;;7.01;88.00;101263.94;5093216;28;20050;-49
2020/12/19 02:11:21;;;;;;;13.25;8.82;;;;;;;7.00;88.11;101267.84;5093872;28;20052;-52
2020/12/19 02:13:48;;;;;;;14.90;9.57;;;;;;;6.98;88.24;101267.28;5099219;28;20179;-47
2020/12/19 02:16:16;;;;;;;14.00;9.80;;;;;;;6.97;87.71;101263.69;5113892;28;20135;-49
2020/12/19 02:18:43;;;;;;;13.23;9.02;;;;;;;6.95;88.00;101265.88;5109270;28;20040;-47
2020/12/19 02:21:11;;;;;;;14.75;10.00;;;;;;;6.92;87.93;101249.75;5093801;28;20147;-48
2020/12/19 02:23:38;;;;;;;13.95;9.70;;;;;;;6.93;87.77;101262.53;5092949;28;20044;-52
2020/12/19 02:26:05;;;;;;;14.10;9.85;;;;;;;6.89;87.56;101265.00;5093388;28;20051;-49
2020/12/19 02:28:32;;;;;;;16.38;10.65;;;;;;;6.89;87.60;101258.59;5093868;28;20131;-50
2020/12/19 02:30:59;;;;;;;16.70;10.80;;;;;;;6.84;87.90;101256.63;5112852;28;20075;-52
2020/12/19 02:33:26;;;;;;;15.93;10.77;;;;;;;6.81;87.99;101248.81;5114012;28;20047;-50
2020/12/19 02:36:07;;;;;;;15.32;10.93;;;;;;;6.77;87.97;101250.47;5113591;28;20120;-49
2020/12/19 02:38:34;;;;;;;15.52;10.38;;;;;;;6.72;88.58;101244.03;5113382;28;20047;-49
2020/12/19 02:41:01;;;;;;;16.02;10.50;;;;;;;6.72;88.10;101235.72;5113493;28;20070;-49
2020/12/19 02:43:28;;;;;;;17.25;11.13;;;;;;;6.70;88.52;101240.69;5113729;28;20075;-51
2020/12/19 02:45:55;;;;;;;16.20;10.48;;;;;;;6.66;88.09;101234.00;5112280;28;20047;-47
2020/12/19 02:48:31;;;;;;;15.88;11.32;;;;;;;6.61;88.07;101231.16;5113603;28;20090;-49
2020/12/19 02:50:57;;;;;;;14.40;10.23;;;;;;;6.55;88.18;101233.09;5112447;28;20043;-51
2020/12/19 02:53:24;;;;;;;14.98;10.93;;;;;;;6.54;88.54;101220.31;5113136;28;20062;-52
2020/12/19 02:55:51;;;;;;;16.35;10.73;;;;;;;6.51;88.41;101221.69;5112982;28;20505;-52
2020/12/19 02:58:19;;;;;;;16.48;10.75;;;;;;;6.49;88.41;101212.78;5112922;28;20043;-51
2020/12/19 03:01:04;;;;;;;17.13;10.85;;;;;;;6.45;88.38;101211.63;5112904;28;20044;-52
2020/12/19 03:03:31;;;;;;;15.70;11.30;;;;;;;6.43;88.79;101204.69;5113229;28;20055;-49
2020/12/19 03:05:58;;;;;;;15.15;10.95;;;;;;;6.40;88.81;101199.66;5112139;28;20054;-46
2020/12/19 03:08:25;;;;;;;15.55;11.00;;;;;;;6.38;88.63;101204.66;5113337;28;20051;-49
2020/12/19 03:10:51;;;;;;;16.80;10.48;;;;;;;6.35;88.93;101194.94;5112565;28;20559;-49
2020/12/19 03:13:19;;;;;;;15.68;10.52;;;;;;;6.34;88.96;101193.25;5112793;28;20051;-49
2020/12/19 03:15:46;;;;;;;16.83;11.60;;;;;;;6.31;88.83;101191.00;5112271;28;20039;-51
2020/12/19 03:18:13;;;;;;;15.23;10.90;;;;;;;6.28;89.18;101187.91;5113059;28;20047;-49
2020/12/19 03:20:40;;;;;;;16.02;10.90;;;;;;;6.27;89.37;101184.31;5112169;28;20048;-49
2020/12/19 03:23:07;;;;;;;15.65;10.23;;;;;;;6.28;88.84;101183.22;5112892;28;20071;-50
2020/12/19 03:25:34;;;;;;;17.83;11.60;;;;;;;6.26;88.69;101181.78;5112482;28;20075;-54
2020/12/19 03:28:00;;;;;;;15.15;10.80;;;;;;;6.21;89.22;101177.88;5112314;28;20051;-49
2020/12/19 03:30:28;;;;;;;15.43;10.23;;;;;;;6.21;88.93;101185.34;5112643;28;20086;-51
2020/12/19 03:32:55;;;;;;;16.73;10.52;;;;;;;6.18;88.96;101180.34;5112314;28;20050;-51
2020/12/19 03:35:23;;;;;;;14.73;10.73;;;;;;;6.17;89.16;101189.75;5112406;28;20051;-49
2020/12/19 03:37:51;;;;;;;16.05;11.02;;;;;;;6.18;89.10;101177.59;5094863;28;20072;-49
2020/12/19 03:40:18;;;;;;;16.92;10.82;;;;;;;6.15;89.00;101172.56;5092017;28;20051;-52
2020/12/19 03:42:45;;;;;;;14.80;10.30;;;;;;;6.14;89.28;101177.28;5093718;28;20052;-51
2020/12/19 03:45:12;;;;;;;15.73;11.52;;;;;;;6.12;89.00;101165.59;5093362;28;20075;-52
2020/12/19 03:47:39;;;;;;;16.73;11.25;;;;;;;6.09;89.11;101168.91;5098934;28;20047;-48
2020/12/19 03:50:06;;;;;;;17.73;11.48;;;;;;;6.08;89.20;101166.38;5092232;28;20052;-48
2020/12/19 03:52:33;;;;;;;15.82;10.82;;;;;;;6.06;89.16;101158.34;5091648;28;20102;-49
2020/12/19 03:55:00;;;;;;;15.82;9.40;;;;;;;6.06;89.54;101154.72;5091321;28;20060;-48
2020/12/19 03:57:26;;;;;;;16.25;10.95;;;;;;;6.06;89.38;101163.03;5091436;28;20473;-46
2020/12/19 03:59:53;;;;;;;16.90;11.68;;;;;;;6.02;89.25;101150.81;5092133;28;20422;-52
2020/12/19 04:02:20;;;;;;;15.80;10.40;;;;;;;6.00;89.16;101155.78;5108414;28;20398;-47
2020/12/19 04:04:48;;;;;;;14.98;11.02;;;;;;;5.96;89.24;101151.88;5112592;28;20043;-52
2020/12/19 04:07:14;;;;;;;15.48;10.55;;;;;;;5.95;89.44;101147.44;5112606;28;20042;-51
2020/12/19 04:09:41;;;;;;;15.65;10.80;;;;;;;5.94;89.37;101154.06;5112454;28;20044;-47
2020/12/19 04:12:08;;;;;;;16.48;10.20;;;;;;;5.91;89.17;101146.28;5111167;28;20417;-46
2020/12/19 04:14:38;;;;;;;18.30;11.90;;;;;;;5.85;89.10;101134.28;5112989;28;20043;-49
2020/12/19 04:17:05;;;;;;;17.50;10.90;;;;;;;5.82;89.30;101132.00;5112681;28;20039;-46
2020/12/19 04:19:32;;;;;;;16.85;10.70;;;;;;;5.80;89.22;101132.28;5112212;28;20047;-50
2020/12/19 04:22:00;;;;;;;16.50;11.40;;;;;;;5.75;89.58;101134.19;5112969;28;20044;-48
2020/12/19 04:24:27;;;;;;;17.27;11.63;;;;;;;5.72;89.53;101126.38;5111552;28;20047;-52
2020/12/19 04:26:54;;;;;;;18.30;12.10;;;;;;;5.72;89.81;101129.16;5112774;28;20075;-48
2020/12/19 04:29:21;;;;;;;16.95;11.10;;;;;;;5.71;89.94;101139.38;5112258;28;20105;-50
2020/12/19 04:31:47;;;;;;;17.35;11.15;;;;;;;5.68;89.99;101125.22;5112524;28;20083;-50
2020/12/19 04:34:15;;;;;;;16.75;11.43;;;;;;;5.65;89.93;101115.50;5111913;28;20239;-51
2020/12/19 04:36:42;;;;;;;19.40;11.60;;;;;;;5.65;90.27;101123.81;5112099;28;20046;-51
2020/12/19 04:39:09;;;;;;;17.58;11.38;;;;;;;5.67;89.97;101112.47;5111997;28;20479;-52
2020/12/19 04:41:36;;;;;;;16.92;11.32;;;;;;;5.66;89.87;101113.56;5112626;28;20410;-48
2020/12/19 04:44:04;;;;;;;18.27;11.60;;;;;;;5.66;90.09;101114.41;5111550;28;20510;-47
2020/12/19 04:46:32;;;;;;;17.58;11.15;;;;;;;5.66;89.95;101110.81;5112161;28;20044;-52
2020/12/19 04:49:00;;;;;;;17.77;12.50;;;;;;;5.66;89.81;101108.88;5112055;28;20040;-54
2020/12/19 04:51:27;;;;;;;17.92;11.60;;;;;;;5.68;89.91;101106.69;5100233;28;20460;-50
2020/12/19 04:53:55;;;;;;;17.58;11.68;;;;;;;5.68;89.93;101095.59;5096505;28;20067;-48
2020/12/19 04:56:24;;;;;;;16.70;11.73;;;;;;;5.71;90.32;101105.31;5112158;28;20058;-47
2020/12/19 04:58:52;;;;;;;19.35;12.48;;;;;;;5.72;89.94;101102.31;5111369;28;20387;-50
2020/12/19 05:01:19;;;;;;;17.27;11.20;;;;;;;5.73;89.79;101103.97;5112137;28;20043;-51
2020/12/19 05:03:48;;;;;;;16.27;11.35;;;;;;;5.74;89.76;101094.56;5111277;28;20058;-48
2020/12/19 05:06:18;;;;;;;16.88;11.27;;;;;;;5.74;89.64;101097.34;5110321;28;20073;-48
2020/12/19 05:08:45;;;;;;;19.08;11.75;;;;;;;5.78;89.89;101092.13;5112565;28;20138;-52
2020/12/19 05:11:13;;;;;;;18.02;11.00;;;;;;;5.81;90.17;101086.88;5111534;28;20059;-52
2020/12/19 05:13:42;;;;;;;17.05;11.23;;;;;;;5.84;89.84;101080.81;5112029;28;20043;-49
2020/12/19 05:16:10;;;;;;;17.45;10.98;;;;;;;5.89;89.77;101071.75;5093719;28;20048;-52
2020/12/19 05:18:37;;;;;;;17.02;11.60;;;;;;;5.93;89.85;101052.69;5091324;28;20044;-48
2020/12/19 05:21:05;;;;;;;18.40;11.57;;;;;;;5.94;89.37;101062.66;5106703;28;20063;-51
2020/12/19 05:23:34;;;;;;;17.17;11.30;;;;;;;5.99;89.35;101063.56;5111978;28;20123;-51
2020/12/19 05:26:03;;;;;;;16.65;11.27;;;;;;;6.01;89.38;101049.41;5097158;28;20044;-50
2020/12/19 05:28:30;;;;;;;18.80;11.93;;;;;;;6.00;89.40;101048.56;5091504;28;20125;-51
2020/12/19 05:30:59;;;;;;;17.08;11.15;;;;;;;6.03;88.96;101049.97;5090925;28;20107;-50
2020/12/19 05:33:31;;;;;;;18.13;11.45;;;;;;;6.02;88.99;101051.91;5090884;28;20517;-49
2020/12/19 05:35:58;;;;;;;;;;;;;;;5.99;88.87;101049.72;5102041;28;20071;-50
2020/12/19 05:38:27;;;;;;;17.75;11.07;;;;;;;5.99;89.35;101051.63;5111940;28;20382;-48
2020/12/19 05:40:55;;;;;;;17.50;10.77;;;;;;;6.03;89.31;101050.81;5102386;28;20060;-48
2020/12/19 05:43:22;;;;;;;15.65;11.07;;;;;;;6.05;88.90;101053.31;5090964;28;20101;-51
2020/12/19 05:45:48;;;;;;;15.35;10.52;;;;;;;6.04;89.09;101040.56;5091177;28;20042;-50
2020/12/19 05:48:16;;;;;;;15.27;10.07;;;;;;;6.04;88.59;101054.44;5090681;28;20509;-49
2020/12/19 05:50:43;;;;;;;17.17;10.80;;;;;;;6.03;89.10;101048.06;5095206;28;20040;-49
2020/12/19 05:53:10;;;;;;;15.05;10.45;;;;;;;6.01;88.61;101055.78;5111889;28;20089;-50
2020/12/19 05:55:37;;;;;;;15.90;10.73;;;;;;;6.00;89.09;101056.03;5108871;28;20154;-50
2020/12/19 05:58:05;;;;;;;16.60;10.57;;;;;;;6.01;89.13;101054.94;5091130;28;20491;-52
2020/12/19 06:00:32;;;;;;;17.58;11.00;;;;;;;6.01;88.64;101049.41;5091403;28;20052;-49
2020/12/19 06:03:02;;;;;;;14.43;10.18;;;;;;;5.98;88.79;101048.03;5104896;28;20048;-49
2020/12/19 06:05:31;;;;;;;17.38;10.50;;;;;;;5.95;88.93;101034.72;5111661;28;20051;-48
2020/12/19 06:08:19;;;;;;;18.15;10.32;;;;;;;5.94;88.61;101037.75;5090434;28;20078;-50
2020/12/19 06:10:46;;;;;;;15.57;10.35;;;;;;;5.91;88.70;101043.81;5091188;28;20119;-49
2020/12/19 06:13:16;;;;;;;16.23;10.10;;;;;;;5.88;88.64;101034.91;5109919;28;20439;-52
2020/12/19 06:15:52;;;;;;;16.23;10.40;;;;;;;5.83;89.13;101034.84;5111217;28;20096;-53
2020/12/19 06:18:33;;;;;;;15.55;10.02;;;;;;;5.84;89.23;101039.28;5110810;28;20592;-47
2020/12/19 06:21:06;;;;;;;17.10;10.68;;;;;;;5.82;89.39;101027.63;5111711;28;20040;-48
2020/12/19 06:23:34;;;;;;;16.33;10.40;;;;;;;5.85;89.50;101021.56;5110093;28;20079;-52
2020/12/19 06:26:03;;;;;;;15.55;10.88;;;;;;;5.86;89.26;101020.47;5111439;28;20055;-49
2020/12/19 06:28:50;;;;;;;17.17;10.05;;;;;;;5.90;89.28;101018.03;5113521;28;20047;-51
2020/12/19 06:31:19;;;;;;;17.65;11.45;;;;;;;5.93;89.08;101027.75;5114643;28;20055;-48
2020/12/19 06:33:47;;;;;;;19.83;11.63;;;;;;;5.96;89.20;101028.06;5114287;28;20135;-48
2020/12/19 06:36:24;;;;;;;17.95;11.27;;;;;;;5.99;89.63;101024.78;5114539;28;20051;-51
2020/12/19 06:38:54;;;;;;;17.25;11.20;;;;;;;6.04;89.27;101021.19;5097047;28;20072;-49
2020/12/19 06:41:44;;;;;;;17.92;11.20;;;;;;;6.09;89.26;101026.78;5094686;28;20118;-51
2020/12/19 06:44:13;;;;;;;16.17;10.88;;;;;;;6.09;89.54;101021.22;5111902;28;20079;-49
2020/12/19 06:46:41;;;;;;;16.38;10.32;;;;;;;6.15;88.88;101023.78;5114744;28;20491;-53
2020/12/19 06:49:27;;;;;;;15.65;9.60;;;;;;;6.20;88.95;101026.56;5097633;28;20044;-49
2020/12/19 06:52:04;;;;;;;16.58;10.15;;;;;;;6.22;89.18;101032.69;5093558;28;20070;-49
2020/12/19 06:54:32;;;;;;;14.30;10.15;;;;;;;6.24;89.22;101026.88;5112164;28;20138;-51
2020/12/19 06:57:00;;;;;;;16.50;10.68;;;;;;;6.27;88.97;101026.34;5114829;28;20064;-49
2020/12/19 06:59:28;;;;;;;14.88;10.07;;;;;;;6.33;89.13;101028.06;5097040;28;20410;-51
2020/12/19 07:02:19;;;;;;;17.02;10.93;;;;;;;6.36;89.05;101019.22;5093553;28;20050;-51
2020/12/19 07:04:46;;;;;;;14.27;9.73;;;;;;;6.37;89.29;101018.13;5094294;28;20075;-50
2020/12/19 07:07:16;;;;;;;15.52;10.63;;;;;;;6.40;88.77;101006.47;5092771;28;20513;-49
2020/12/19 07:09:55;;;;;;;15.57;10.02;;;;;;;6.43;89.01;101014.25;5108833;28;20122;-50
2020/12/19 07:12:35;;;;;;;14.57;9.73;;;;;;;6.44;88.78;101004.84;5089946;28;20067;-48
2020/12/19 07:15:04;;;;;;;14.55;9.10;;;;;;;6.45;88.64;101000.13;5092687;28;20429;-52
2020/12/19 07:17:45;;;;;;;15.93;10.65;;;;;;;6.46;88.91;101001.81;5092454;28;20510;-52
2020/12/19 07:20:13;;;;;;;14.55;9.20;;;;;;;6.48;88.57;101003.19;5109060;28;20510;-52
2020/12/19 07:22:40;;;;;;;14.57;9.73;;;;;;;6.49;88.74;100995.72;5113517;28;20047;-55
2020/12/19 07:25:07;;;;;;;16.17;10.15;;;;;;;6.54;88.53;100999.38;5097588;28;20048;-50
2020/12/19 07:27:34;;;;;;;15.77;10.02;;;;;;;6.56;88.66;101011.03;5091738;28;20127;-52
2020/12/19 07:30:01;;;;;;;15.20;9.85;;;;;;;6.62;88.81;100991.63;5104618;28;20058;-49
2020/12/19 07:32:28;;;;;;;15.55;9.60;;;;;;;6.64;88.27;101008.81;5112662;28;20087;-50
2020/12/19 07:34:56;;;;;;;14.23;9.43;;;;;;;6.67;88.12;101008.28;5101561;28;20105;-49
2020/12/19 07:37:24;;;;;;;13.40;9.05;;;;;;;6.70;88.53;101018.84;5092365;28;20056;-49
2020/12/19 07:40:02;;;;;;;14.50;9.90;;;;;;;6.72;88.18;101011.94;5098763;28;20058;-47
2020/12/19 07:42:29;;;;;;;14.30;9.73;;;;;;;6.76;88.25;101018.63;5112456;28;20401;-49
2020/12/19 07:44:56;;;;;;;19.40;10.18;;;;;;;6.81;88.07;101015.00;5104836;28;20071;-50
2020/12/19 07:47:22;;;;;;;14.95;10.05;;;;;;;6.81;88.13;101009.47;5091928;28;20048;-48
2020/12/19 07:49:50;;;;;;;17.45;9.43;;;;;;;6.80;87.81;101005.84;5097310;28;20078;-49
2020/12/19 07:52:19;;;;;;;13.82;9.35;;;;;;;6.79;87.78;101006.97;5112283;28;20047;-48
2020/12/19 07:54:55;;;;;;;16.23;10.32;;;;;;;6.78;88.32;100998.94;5107872;28;20513;-50
2020/12/19 07:57:22;;;;;;;15.02;9.82;;;;;;;6.74;88.13;100986.69;5091658;28;20498;-50
2020/12/19 07:59:50;;;;;;;15.38;10.50;;;;;;;6.75;88.11;100997.53;5093796;28;20052;-48
2020/12/19 08:02:18;;;;;;;15.35;9.77;;;;;;;6.72;88.30;100988.91;5111611;28;20082;-51
2020/12/19 08:04:48;;;;;;;14.98;10.60;;;;;;;6.71;88.35;100995.56;5112002;28;20063;-50
2020/12/19 08:07:16;;;;;;;16.75;10.95;;;;;;;6.71;88.55;100993.63;5110823;28;20046;-50
2020/12/19 08:09:43;;;;;;;16.80;10.60;;;;;;;6.70;88.58;100985.56;5111556;28;20409;-50
2020/12/19 08:12:11;;;;;;;16.73;10.38;;;;;;;6.72;88.61;101000.00;5111702;28;20097;-48
2020/12/19 08:14:39;;;;;;;16.42;11.05;;;;;;;6.73;88.88;100990.59;5111771;28;20039;-47
2020/12/19 08:17:15;;;;;;;17.05;11.00;;;;;;;6.78;89.15;100996.16;5111582;28;20150;-48
2020/12/19 08:19:47;;;;;;;17.40;10.15;;;;;;;6.82;89.13;100989.78;5112121;28;20102;-49
2020/12/19 08:22:15;;;;;;;17.02;10.25;;;;;;;6.87;89.12;100994.50;5094314;28;20122;-50
2020/12/19 08:24:58;;;;;;;15.30;10.82;;;;;;;6.90;89.32;100991.19;5091841;28;20524;-47
2020/12/19 08:27:32;;;;;;;16.58;10.80;;;;;;;6.96;89.01;100990.13;5091514;28;20135;-49
2020/12/19 08:30:04;;;;;;;17.65;11.68;;;;;;;7.02;89.19;100982.63;5091381;28;20399;-47
2020/12/19 08:32:31;;;;;;;17.40;11.43;;;;;;;7.08;89.12;100993.47;5107397;28;20552;-47
2020/12/19 08:34:58;;;;;;;16.73;10.88;;;;;;;7.09;88.93;100989.59;5112071;28;20118;-49
2020/12/19 08:37:25;;;;;;;15.93;11.45;;;;;;;7.12;88.75;100983.50;5096654;28;20048;-48
2020/12/19 08:40:03;;;;;;;20.85;11.45;;;;;;;7.13;88.67;100992.66;5091202;28;20711;-49
2020/12/19 08:42:31;;;;;;;17.77;11.35;;;;;;;7.16;88.71;100989.34;5103995;28;20478;-47
2020/12/19 08:45:16;;;;;;;17.17;11.07;;;;;;;7.17;88.69;100989.09;5110996;28;20054;-50
2020/12/19 08:47:44;;;;;;;17.23;11.20;;;;;;;7.19;88.82;100983.25;5091535;28;20076;-50
2020/12/19 08:50:12;;;;;;;19.85;11.77;;;;;;;7.21;88.63;100981.03;5090478;28;20044;-58
2020/12/19 08:52:39;;;;;;;17.92;11.38;;;;;;;7.24;88.86;100984.09;5102263;28;20073;-51
2020/12/19 08:55:05;;;;;;;17.55;11.75;;;;;;;7.29;88.77;100982.44;5111408;28;20540;-54
2020/12/19 08:57:33;;;;;;;20.48;11.10;;;;;;;7.33;88.93;100989.09;5100687;28;20598;-56
2020/12/19 09:00:11;;;;;;;17.60;10.77;;;;;;;7.42;89.04;100987.44;5091195;28;20116;-54
2020/12/19 09:02:39;;;;;;;19.63;12.00;;;;;;;7.48;88.74;100986.34;5090642;28;20056;-57
2020/12/19 09:05:06;;;;;;;17.80;11.50;;;;;;;7.56;88.73;100994.97;5090465;28;20044;-57
2020/12/19 09:07:33;;;;;;;17.17;11.23;;;;;;;7.69;88.82;100998.31;5096871;28;20044;-55
2020/12/19 09:10:25;;;;;;;18.15;11.55;;;;;;;7.84;88.42;100995.53;5111161;28;20494;-55
2020/12/19 09:13:25;;;;;;;17.67;11.02;;;;;;;7.95;88.32;101002.78;5110091;28;20571;-52
2020/12/19 09:15:56;;;;;;;16.02;10.77;;;;;;;8.02;88.04;100994.13;5048359;28;20056;-55
2020/12/19 09:18:25;;;;;;;14.65;10.00;;;;;;;8.12;87.96;100996.91;5047220;28;20587;-54
2020/12/19 09:20:54;;;;;;;16.73;11.25;;;;;;;8.19;87.79;100991.91;5079257;28;20117;-54
2020/12/19 09:23:22;;;;;;;17.38;11.45;;;;;;;8.21;87.50;100995.22;5110387;28;20047;-58
2020/12/19 09:25:50;;;;;;;14.35;10.60;;;;;;;8.27;87.26;100988.56;5097884;28;20502;-55
2020/12/19 09:28:17;;;;;;;15.70;10.68;;;;;;;8.31;87.12;100998.00;5090224;28;20047;-53
2020/12/19 09:30:45;;;;;;;18.65;10.32;;;;;;;8.33;87.18;100990.25;5106346;28;20494;-58
2020/12/19 09:33:12;;;;;;;15.73;10.23;;;;;;;8.34;87.30;100993.88;5105059;28;20067;-57
2020/12/19 09:35:39;;;;;;;17.60;10.38;;;;;;;8.34;87.33;100989.13;5091040;28;20044;-54
2020/12/19 09:38:06;;;;;;;15.18;9.50;;;;;;;8.39;87.24;100996.66;5090581;28;20059;-55
2020/12/19 09:40:33;;;;;;;16.25;9.65;;;;;;;8.42;87.23;100990.50;5089842;28;20138;-53
2020/12/19 09:43:00;;;;;;;15.98;10.65;;;;;;;8.44;87.01;100993.81;5090636;28;20056;-56
2020/12/19 09:45:27;;;;;;;16.40;10.77;;;;;;;8.43;87.04;100998.56;5110258;28;20044;-54
2020/12/19 09:47:56;;;;;;;15.15;10.43;;;;;;;8.45;86.85;100999.09;5110432;28;20112;-56
2020/12/19 09:50:25;;;;;;;14.85;10.25;;;;;;;8.45;86.86;100993.56;5110084;28;20044;-54
2020/12/19 09:52:52;;;;;;;16.67;10.50;;;;;;;8.47;87.21;100988.53;5111231;28;20089;-55
2020/12/19 09:55:20;;;;;;;16.63;10.50;;;;;;;8.50;86.98;100999.09;5109620;28;20134;-55
2020/12/19 09:57:48;;;;;;;15.70;10.25;;;;;;;8.55;87.20;100992.69;5110821;28;20075;-52
2020/12/19 10:00:16;;;;;;;15.48;10.30;;;;;;;8.59;86.84;100991.84;5109713;28;20052;-58
2020/12/19 10:02:49;;;;;;;14.15;9.52;;;;;;;8.64;86.97;100985.44;5112473;28;20069;-57
2020/12/19 10:05:17;;;;;;;17.77;10.55;;;;;;;8.69;86.85;100990.16;5114131;27;20058;-55
2020/12/19 10:07:43;;;;;;;15.40;10.38;;;;;;;8.73;86.68;100986.53;5114074;28;20452;-57
2020/12/19 10:10:11;;;;;;;16.73;10.23;;;;;;;8.77;86.62;100990.41;5113508;28;20044;-54
2020/12/19 10:12:38;;;;;;;13.52;9.65;;;;;;;8.80;86.65;100981.47;5112357;28;20092;-57
2020/12/19 10:15:07;;;;;;;14.23;9.00;;;;;;;8.84;86.49;100982.56;5105936;28;20919;-55
2020/12/19 10:17:34;;;;;;;13.25;8.48;;;;;;;8.89;86.49;100985.34;5114251;28;20509;-57
2020/12/19 10:20:00;;;;;;;13.52;8.50;;;;;;;8.95;86.31;100986.16;5106992;28;20525;-58
2020/12/19 10:22:31;;;;;;;15.75;8.80;;;;;;;9.01;86.10;100984.16;5113916;28;20405;-59
2020/12/19 10:25:00;;;;;;;13.07;7.88;;;;;;;9.07;86.12;100991.38;5113889;28;20039;-59
2020/12/19 10:27:27;;;;;;;11.77;7.95;;;;;;;9.14;85.97;100980.78;5114312;28;20051;-58
2020/12/19 10:29:54;;;;;;;13.13;8.25;;;;;;;9.18;85.78;100977.13;5113182;28;20057;-59
2020/12/19 10:32:21;;;;;;;11.63;7.93;;;;;;;9.22;85.78;100972.63;5111916;28;20401;-59
2020/12/19 10:34:47;;;;;;;13.10;8.25;;;;;;;9.26;85.65;100972.88;5113816;28;20472;-56
2020/12/19 10:37:15;;;;;;;13.88;9.00;;;;;;;9.30;85.46;100963.69;5113121;28;20078;-55
2020/12/19 10:39:42;;;;;;;13.93;8.30;;;;;;;9.35;85.21;100964.78;5114034;28;20050;-56
2020/12/19 10:42:09;;;;;;;13.05;8.38;;;;;;;9.39;85.17;100957.50;5113367;28;20113;-61
2020/12/19 10:44:36;;;;;;;12.60;8.32;;;;;;;9.41;84.95;100970.00;5113818;28;20130;-57
2020/12/19 10:47:03;;;;;;;11.52;8.00;;;;;;;9.44;84.94;100958.28;5096249;28;20405;-59
2020/12/19 10:49:30;;;;;;;11.18;7.80;;;;;;;9.47;84.95;100948.53;5092967;28;20059;-58
2020/12/19 10:52:02;;;;;;;11.30;8.10;;;;;;;9.47;84.87;100946.56;5092550;28;20044;-61
2020/12/19 10:54:28;;;;;;;13.85;8.85;;;;;;;9.50;84.85;100950.75;5092805;28;20139;-55
2020/12/19 10:57:00;;;;;;;12.43;8.27;;;;;;;9.48;84.62;100944.63;5104016;28;20077;-55
2020/12/19 10:59:27;;;;;;;12.63;7.88;;;;;;;9.48;84.42;100952.97;5113353;28;20136;-56
2020/12/19 11:01:54;;;;;;;12.63;8.27;;;;;;;9.49;84.69;100949.91;5112799;28;20031;-59
2020/12/19 11:04:21;;;;;;;12.73;8.27;;;;;;;9.51;84.39;100952.41;5112706;28;20463;-54
2020/12/19 11:06:49;;;;;;;12.18;8.07;;;;;;;9.49;84.39;100949.91;5110804;28;20097;-57
2020/12/19 11:09:17;;;;;;;12.40;7.97;;;;;;;9.52;84.36;100952.13;5112889;28;20430;-57
2020/12/19 11:11:50;;;;;;;11.45;7.40;;;;;;;9.51;84.40;100957.97;5112467;28;20462;-57
2020/12/19 11:14:17;;;;;;;12.57;8.40;;;;;;;9.51;84.59;100958.81;5113358;28;20418;-55
2020/12/19 11:16:44;;;;;;;10.70;7.70;;;;;;;9.50;84.47;100959.94;5112695;28;20051;-55
2020/12/19 11:19:11;;;;;;;11.27;7.97;;;;;;;9.52;84.37;100966.03;5112551;28;20040;-55
2020/12/19 11:21:41;;;;;;;12.80;7.90;;;;;;;9.55;84.23;100942.34;5112765;28;20066;-56
2020/12/19 11:24:08;;;;;;;11.25;7.85;;;;;;;9.55;84.39;100948.75;5113440;28;20054;-57
2020/12/19 11:26:35;;;;;;;13.15;7.63;;;;;;;9.55;84.38;100948.75;5111873;28;20456;-53
2020/12/19 11:29:01;;;;;;;13.07;7.97;;;;;;;9.56;84.14;100955.16;5112920;28;20104;-57
2020/12/19 11:31:29;;;;;;;11.68;8.07;;;;;;;9.57;84.16;100952.09;5112616;28;20141;-56